createdAt,value
2023-06-03T00:00:20.040Z,1008.2
2023-06-03T00:01:21.064Z,1008.2
2023-06-03T00:02:22.080Z,1008.2
2023-06-03T00:03:23.108Z,1008.1
2023-06-03T00:04:24.062Z,1008.1
2023-06-03T00:05:25.037Z,1008.1
2023-06-03T00:06:26.050Z,1008.1
2023-06-03T00:07:27.097Z,1008.2
2023-06-03T00:08:28.091Z,1008.2
2023-06-03T00:09:29.149Z,1008.2
2023-06-03T00:10:30.069Z,1008.3
2023-06-03T00:11:31.046Z,1008.2
2023-06-03T00:12:32.047Z,1008.2
2023-06-03T00:13:33.053Z,1008.2
2023-06-03T00:14:34.047Z,1008.1
2023-06-03T00:15:35.080Z,1008.1
2023-06-03T00:16:36.104Z,1008.1
2023-06-03T00:17:37.077Z,1008.2
2023-06-03T00:18:39.366Z,1008.2
2023-06-03T00:19:40.503Z,1008.1
2023-06-03T00:20:41.051Z,1008.2
2023-06-03T00:21:42.042Z,1008.2
2023-06-03T00:22:43.064Z,1008.2
2023-06-03T00:23:44.077Z,1008.3
2023-06-03T00:24:45.069Z,1008.3
2023-06-03T00:25:46.096Z,1008.3
2023-06-03T00:26:48.333Z,1008.5
2023-06-03T00:27:48.065Z,1008.3
2023-06-03T00:28:49.048Z,1008
2023-06-03T00:29:50.060Z,1008.2
2023-06-03T00:30:51.059Z,1008.3
2023-06-03T00:31:52.090Z,1008.3
2023-06-03T00:32:53.089Z,1008.3
2023-06-03T00:33:54.198Z,1008.3
2023-06-03T00:34:55.064Z,1008.4
2023-06-03T00:35:56.063Z,1008.4
2023-06-03T00:36:57.063Z,1008.4
2023-06-03T00:37:58.055Z,1008.4
2023-06-03T00:38:59.104Z,1008.4
2023-06-03T00:40:00.100Z,1008.4
2023-06-03T00:41:01.072Z,1008.4
2023-06-03T00:42:02.064Z,1008.4
2023-06-03T00:43:03.074Z,1008.4
2023-06-03T00:44:04.111Z,1008.4
2023-06-03T00:45:05.069Z,1008.4
2023-06-03T00:46:06.088Z,1008.5
2023-06-03T00:47:07.101Z,1007.9
2023-06-03T00:48:08.122Z,1008.3
2023-06-03T00:49:09.069Z,1008.4
2023-06-03T00:50:10.067Z,1008.5
2023-06-03T00:51:11.124Z,1008.5
2023-06-03T00:52:12.072Z,1008.5
2023-06-03T00:53:13.074Z,1008.5
2023-06-03T00:54:14.099Z,1008.5
2023-06-03T00:55:15.081Z,1008.5
2023-06-03T00:56:16.085Z,1008.5
2023-06-03T00:57:17.069Z,1008.5
2023-06-03T00:58:18.104Z,1008.6
2023-06-03T00:59:19.087Z,1008.5
2023-06-03T01:00:20.087Z,1008.5
2023-06-03T01:01:21.091Z,1008.6
2023-06-03T01:02:22.105Z,1008.6
2023-06-03T01:03:23.216Z,1008.5
2023-06-03T01:04:24.082Z,1008.6
2023-06-03T01:05:25.083Z,1008.6
2023-06-03T01:06:26.122Z,1008.6
2023-06-03T01:07:27.091Z,1007.9
2023-06-03T01:08:28.096Z,1008.5
2023-06-03T01:09:29.084Z,1008.5
2023-06-03T01:10:30.088Z,1008.5
2023-06-03T01:11:31.096Z,1008.6
2023-06-03T01:12:32.141Z,1008.6
2023-06-03T01:13:33.094Z,1008.6
2023-06-03T01:14:34.082Z,1008.5
2023-06-03T01:15:35.168Z,1008.6
2023-06-03T01:16:36.090Z,1008.6
2023-06-03T01:17:37.219Z,1008.6
2023-06-03T01:18:39.549Z,1008.6
2023-06-03T01:19:40.729Z,1008.6
2023-06-03T01:20:42.076Z,1008.6
2023-06-03T01:21:43.091Z,1008.6
2023-06-03T01:22:44.124Z,1008.6
2023-06-03T01:23:45.187Z,1008.7
2023-06-03T01:24:46.098Z,1008.7
2023-06-03T01:25:47.122Z,1008.7
2023-06-03T01:26:48.088Z,1008.6
2023-06-03T01:27:49.081Z,1008.6
2023-06-03T01:28:50.142Z,1008.7
2023-06-03T01:29:51.087Z,1008.7
2023-06-03T01:30:52.213Z,1008.7
2023-06-03T01:31:53.111Z,1008.7
2023-06-03T01:32:54.152Z,1008.7
2023-06-03T01:33:55.718Z,1008.7
2023-06-03T01:34:57.099Z,1008.8
2023-06-03T01:35:58.100Z,1008.7
2023-06-03T01:36:59.107Z,1008.7
2023-06-03T01:38:00.148Z,1008.7
2023-06-03T01:39:01.195Z,1008.8
2023-06-03T01:40:02.121Z,1008.8
2023-06-03T01:41:03.190Z,1008.7
2023-06-03T01:42:04.103Z,1008.7
2023-06-03T01:43:05.099Z,1008.8
2023-06-03T01:44:06.099Z,1008.8
2023-06-03T01:45:07.139Z,1008.8
2023-06-03T01:46:08.124Z,1008.8
2023-06-03T01:47:09.121Z,1008.8
2023-06-03T01:48:10.159Z,1008.8
2023-06-03T01:49:11.098Z,1008.8
2023-06-03T01:50:12.112Z,1008.8
2023-06-03T01:51:13.090Z,1008.8
2023-06-03T01:52:14.134Z,1008.8
2023-06-03T01:53:15.107Z,1008.8
2023-06-03T01:54:16.105Z,1008.8
2023-06-03T01:55:17.105Z,1008.8
2023-06-03T01:56:18.139Z,1008.8
2023-06-03T01:57:19.096Z,1008.8
2023-06-03T01:58:20.104Z,1008.8
2023-06-03T01:59:21.122Z,1008.9
2023-06-03T02:00:22.105Z,1008.9
2023-06-03T02:01:23.281Z,1008.8
2023-06-03T02:02:24.239Z,1008.9
2023-06-03T02:03:25.123Z,1008.9
2023-06-03T02:04:26.126Z,1008.9
2023-06-03T02:05:27.144Z,1008.9
2023-06-03T02:06:28.101Z,1008.9
2023-06-03T02:07:29.149Z,1008.9
2023-06-03T02:08:30.101Z,1008.9
2023-06-03T02:09:31.119Z,1008.8
2023-06-03T02:10:32.095Z,1008.8
2023-06-03T02:11:33.115Z,1008.8
2023-06-03T02:12:34.107Z,1008.8
2023-06-03T02:13:35.105Z,1008.8
2023-06-03T02:14:36.114Z,1008.8
2023-06-03T02:15:37.124Z,1008.9
2023-06-03T02:16:38.191Z,1008.8
2023-06-03T02:17:39.280Z,1008.8
2023-06-03T02:18:40.762Z,1008.9
2023-06-03T02:19:42.170Z,1008.9
2023-06-03T02:20:43.204Z,1008.9
2023-06-03T02:21:44.111Z,1009
2023-06-03T02:22:45.115Z,1009
2023-06-03T02:23:46.185Z,1008.4
2023-06-03T02:24:47.160Z,1008.8
2023-06-03T02:25:48.111Z,1009
2023-06-03T02:26:49.119Z,1009
2023-06-03T02:27:50.101Z,1009
2023-06-03T02:28:51.130Z,1009
2023-06-03T02:29:52.119Z,1009
2023-06-03T02:30:53.111Z,1009
2023-06-03T02:31:54.145Z,1009
2023-06-03T02:32:55.196Z,1009
2023-06-03T02:33:56.108Z,1009
2023-06-03T02:34:57.618Z,1009
2023-06-03T02:35:59.124Z,1009
2023-06-03T02:37:00.165Z,1009
2023-06-03T02:38:01.128Z,1009
2023-06-03T02:39:02.127Z,1009
2023-06-03T02:40:03.185Z,1009
2023-06-03T02:41:04.346Z,1009.1
2023-06-03T02:42:05.135Z,1009
2023-06-03T02:43:06.127Z,1009
2023-06-03T02:44:07.147Z,1009
2023-06-03T02:45:08.154Z,1009
2023-06-03T02:46:09.192Z,1009
2023-06-03T02:47:10.126Z,1008.4
2023-06-03T02:48:11.118Z,1008.9
2023-06-03T02:49:12.145Z,1009
2023-06-03T02:50:13.135Z,1009
2023-06-03T02:51:14.164Z,1009
2023-06-03T02:52:15.146Z,1009
2023-06-03T02:53:16.133Z,1009
2023-06-03T02:54:17.110Z,1009
2023-06-03T02:55:18.121Z,1009
2023-06-03T02:56:19.137Z,1009
2023-06-03T02:57:20.134Z,1009
2023-06-03T02:58:21.123Z,1009
2023-06-03T02:59:22.146Z,1009.1
2023-06-03T03:00:23.174Z,1009.1
2023-06-03T03:01:24.253Z,1009.1
2023-06-03T03:02:25.155Z,1009.1
2023-06-03T03:03:26.181Z,1009.2
2023-06-03T03:04:27.156Z,1009.2
2023-06-03T03:05:28.162Z,1009.1
2023-06-03T03:06:29.147Z,1009.1
2023-06-03T03:07:30.134Z,1009.1
2023-06-03T03:08:31.155Z,1009.1
2023-06-03T03:09:32.132Z,1009
2023-06-03T03:10:33.131Z,1009.1
2023-06-03T03:11:34.147Z,1009.1
2023-06-03T03:12:35.189Z,1009.2
2023-06-03T03:13:36.147Z,1009.2
2023-06-03T03:14:37.142Z,1009.2
2023-06-03T03:15:38.177Z,1009.2
2023-06-03T03:16:39.207Z,1009.3
2023-06-03T03:17:40.212Z,1009.3
2023-06-03T03:18:41.163Z,1009.3
2023-06-03T03:19:42.177Z,1009.3
2023-06-03T03:20:43.150Z,1009.2
2023-06-03T03:21:44.146Z,1009.2
2023-06-03T03:22:45.174Z,1009.2
2023-06-03T03:23:46.208Z,1009.2
2023-06-03T03:24:47.144Z,1008.6
2023-06-03T03:25:48.162Z,1009
2023-06-03T03:26:49.160Z,1009.2
2023-06-03T03:27:50.152Z,1009.2
2023-06-03T03:28:51.154Z,1009.2
2023-06-03T03:29:52.140Z,1009.3
2023-06-03T03:30:53.156Z,1009.2
2023-06-03T03:31:54.198Z,1009.2
2023-06-03T03:32:55.161Z,1009.2
2023-06-03T03:33:56.156Z,1009.2
2023-06-03T03:34:57.153Z,1009.3
2023-06-03T03:35:58.155Z,1009.2
2023-06-03T03:36:59.168Z,1009.2
2023-06-03T03:38:00.184Z,1009.2
2023-06-03T03:39:01.175Z,1009.2
2023-06-03T03:40:02.189Z,1009.2
2023-06-03T03:41:03.239Z,1009.3
2023-06-03T03:42:04.203Z,1009.2
2023-06-03T03:43:05.164Z,1009.2
2023-06-03T03:44:06.158Z,1009.2
2023-06-03T03:45:07.144Z,1009
2023-06-03T03:46:08.867Z,1009.3
2023-06-03T03:47:09.166Z,1009.3
2023-06-03T03:48:10.156Z,1009.3
2023-06-03T03:49:11.164Z,1009
2023-06-03T03:50:12.162Z,1009.2
2023-06-03T03:51:13.149Z,1009.2
2023-06-03T03:52:15.435Z,1009.3
2023-06-03T03:53:15.165Z,1009.3
2023-06-03T03:54:16.171Z,1009.2
2023-06-03T03:55:17.160Z,1009.3
2023-06-03T03:56:18.185Z,1009.4
2023-06-03T03:57:19.155Z,1009.3
2023-06-03T03:58:20.199Z,1009.3
2023-06-03T03:59:21.155Z,1009.3
2023-06-03T04:00:22.201Z,1009.3
2023-06-03T04:01:23.204Z,1009.4
2023-06-03T04:02:24.263Z,1009.4
2023-06-03T04:03:25.181Z,1009.4
2023-06-03T04:04:26.160Z,1009.4
2023-06-03T04:05:27.162Z,1009.4
2023-06-03T04:06:28.163Z,1009.4
2023-06-03T04:07:29.155Z,1009.4
2023-06-03T04:08:30.168Z,1009.3
2023-06-03T04:09:31.193Z,1009.3
2023-06-03T04:10:32.152Z,1009.3
2023-06-03T04:11:33.173Z,1009.4
2023-06-03T04:12:34.149Z,1009.3
2023-06-03T04:13:35.183Z,1009.4
2023-06-03T04:14:36.169Z,1009.3
2023-06-03T04:15:37.216Z,1009.3
2023-06-03T04:16:38.232Z,1009.4
2023-06-03T04:17:39.683Z,1009.3
2023-06-03T04:18:41.024Z,1009.3
2023-06-03T04:19:42.187Z,1009.4
2023-06-03T04:20:43.163Z,1009.4
2023-06-03T04:21:44.202Z,1009.4
2023-06-03T04:22:45.173Z,1009.4
2023-06-03T04:23:46.281Z,1009.5
2023-06-03T04:24:47.190Z,1009.5
2023-06-03T04:25:48.210Z,1009.5
2023-06-03T04:26:49.198Z,1009.5
2023-06-03T04:27:50.183Z,1009.6
2023-06-03T04:28:51.194Z,1009.6
2023-06-03T04:29:52.163Z,1009.6
2023-06-03T04:30:53.165Z,1009.6
2023-06-03T04:31:54.269Z,1009.6
2023-06-03T04:32:55.228Z,1009.6
2023-06-03T04:33:56.162Z,1009.6
2023-06-03T04:34:57.188Z,1009.6
2023-06-03T04:35:58.181Z,1009.6
2023-06-03T04:36:59.224Z,1009.7
2023-06-03T04:38:00.194Z,1009.6
2023-06-03T04:39:01.214Z,1009.6
2023-06-03T04:40:02.219Z,1009.6
2023-06-03T04:41:03.317Z,1009.6
2023-06-03T04:42:04.205Z,1009.6
2023-06-03T04:43:05.176Z,1009.6
2023-06-03T04:44:06.222Z,1009.6
2023-06-03T04:45:07.265Z,1009.6
2023-06-03T04:46:08.227Z,1009.6
2023-06-03T04:47:09.210Z,1009.6
2023-06-03T04:48:10.261Z,1009.6
2023-06-03T04:49:11.232Z,1009.5
2023-06-03T04:50:12.192Z,1009.6
2023-06-03T04:51:13.244Z,1009.6
2023-06-03T04:52:14.213Z,1009.6
2023-06-03T04:53:15.204Z,1009.6
2023-06-03T04:54:16.211Z,1009.6
2023-06-03T04:55:17.199Z,1009.6
2023-06-03T04:56:18.193Z,1009.6
2023-06-03T04:57:19.206Z,1009.6
2023-06-03T04:58:20.198Z,1009.6
2023-06-03T04:59:21.218Z,1009.6
2023-06-03T05:00:22.199Z,1009.6
2023-06-03T05:01:23.219Z,1009.6
2023-06-03T05:02:24.218Z,1009.6
2023-06-03T05:03:25.228Z,1009.6
2023-06-03T05:04:26.204Z,1009.7
2023-06-03T05:05:27.249Z,1009.6
2023-06-03T05:06:28.225Z,1009.6
2023-06-03T05:07:29.211Z,1009.6
2023-06-03T05:08:30.218Z,1009.6
2023-06-03T05:09:31.202Z,1009.6
2023-06-03T05:10:32.200Z,1009.6
2023-06-03T05:11:33.203Z,1009.6
2023-06-03T05:12:34.202Z,1009.6
2023-06-03T05:13:35.219Z,1009.6
2023-06-03T05:14:36.243Z,1009.7
2023-06-03T05:15:37.256Z,1009.6
2023-06-03T05:16:38.298Z,1009.6
2023-06-03T05:17:39.980Z,1009.7
2023-06-03T05:18:41.214Z,1009.7
2023-06-03T05:19:42.249Z,1009.6
2023-06-03T05:20:43.204Z,1009.6
2023-06-03T05:21:44.222Z,1009.6
2023-06-03T05:22:45.215Z,1009.6
2023-06-03T05:23:46.270Z,1009.6
2023-06-03T05:24:47.240Z,1009.6
2023-06-03T05:25:48.222Z,1009.6
2023-06-03T05:26:49.221Z,1009.6
2023-06-03T05:27:58.074Z,1009.6
2023-06-03T05:28:51.214Z,1009.6
2023-06-03T05:29:52.221Z,1009.6
2023-06-03T05:30:53.218Z,1009.6
2023-06-03T05:31:54.259Z,1009.6
2023-06-03T05:32:55.279Z,1009.7
2023-06-03T05:33:56.215Z,1009.6
2023-06-03T05:34:57.220Z,1009.7
2023-06-03T05:35:58.214Z,1009.6
2023-06-03T05:36:59.222Z,1009.7
2023-06-03T05:38:00.225Z,1009.7
2023-06-03T05:39:01.259Z,1009.7
2023-06-03T05:40:02.285Z,1009.7
2023-06-03T05:41:03.295Z,1009.7
2023-06-03T05:42:04.232Z,1009.7
2023-06-03T05:43:05.260Z,1009.7
2023-06-03T05:44:06.247Z,1009.7
2023-06-03T05:45:07.259Z,1009.7
2023-06-03T05:46:08.283Z,1009.7
2023-06-03T05:47:09.234Z,1009.7
2023-06-03T05:48:10.217Z,1009.7
2023-06-03T05:49:11.261Z,1009.7
2023-06-03T05:50:12.233Z,1009.7
2023-06-03T05:51:13.223Z,1009.7
2023-06-03T05:52:14.250Z,1009.7
2023-06-03T05:53:15.215Z,1009.7
2023-06-03T05:54:16.215Z,1009.7
2023-06-03T05:55:17.238Z,1009.8
2023-06-03T05:56:18.219Z,1009.8
2023-06-03T05:57:19.292Z,1009.7
2023-06-03T05:58:20.229Z,1009.7
2023-06-03T05:59:21.227Z,1009.7
2023-06-03T06:00:22.236Z,1009.7
2023-06-03T06:01:23.263Z,1009.7
2023-06-03T06:02:24.322Z,1009.8
2023-06-03T06:03:25.294Z,1009.5
2023-06-03T06:04:26.257Z,1009.7
2023-06-03T06:05:27.225Z,1009.7
2023-06-03T06:06:28.234Z,1009.7
2023-06-03T06:07:29.279Z,1009.7
2023-06-03T06:08:30.237Z,1009.7
2023-06-03T06:09:31.315Z,1009.7
2023-06-03T06:10:32.223Z,1009.7
2023-06-03T06:11:33.220Z,1009.8
2023-06-03T06:12:34.738Z,1009.7
2023-06-03T06:13:36.236Z,1009.7
2023-06-03T06:14:37.245Z,1009.7
2023-06-03T06:15:38.337Z,1009.7
2023-06-03T06:16:39.584Z,1009.7
2023-06-03T06:17:40.245Z,1009.7
2023-06-03T06:18:41.276Z,1009.8
2023-06-03T06:19:42.349Z,1009.8
2023-06-03T06:20:43.242Z,1009.8
2023-06-03T06:21:44.245Z,1009.3
2023-06-03T06:22:45.272Z,1009.7
2023-06-03T06:23:46.349Z,1009.7
2023-06-03T06:24:47.256Z,1009.8
2023-06-03T06:25:48.261Z,1009.9
2023-06-03T06:26:49.244Z,1009.8
2023-06-03T06:27:50.316Z,1009.8
2023-06-03T06:28:51.247Z,1009.8
2023-06-03T06:29:52.280Z,1009.7
2023-06-03T06:30:53.320Z,1009.7
2023-06-03T06:31:54.292Z,1009.7
2023-06-03T06:32:55.345Z,1009.7
2023-06-03T06:33:56.252Z,1009.8
2023-06-03T06:34:57.236Z,1009.8
2023-06-03T06:35:58.245Z,1009.8
2023-06-03T06:36:59.241Z,1009.8
2023-06-03T06:38:00.313Z,1009.8
2023-06-03T06:39:01.339Z,1009.8
2023-06-03T06:40:02.315Z,1009.7
2023-06-03T06:41:03.356Z,1009.7
2023-06-03T06:42:04.278Z,1009.8
2023-06-03T06:43:05.280Z,1009.8
2023-06-03T06:44:06.269Z,1009.7
2023-06-03T06:45:07.264Z,1009.7
2023-06-03T06:46:08.275Z,1009.9
2023-06-03T06:47:09.312Z,1009.8
2023-06-03T06:48:10.344Z,1009.8
2023-06-03T06:49:11.287Z,1009.7
2023-06-03T06:50:12.252Z,1009.7
2023-06-03T06:51:13.265Z,1009.7
2023-06-03T06:52:14.295Z,1009.6
2023-06-03T06:53:15.282Z,1009.7
2023-06-03T06:54:16.274Z,1009.7
2023-06-03T06:55:17.248Z,1009.7
2023-06-03T06:56:18.264Z,1009.4
2023-06-03T06:57:19.292Z,1009.6
2023-06-03T06:58:20.244Z,1009.7
2023-06-03T06:59:21.262Z,1009.7
2023-06-03T07:00:22.291Z,1009.7
2023-06-03T07:01:23.427Z,1009.7
2023-06-03T07:02:24.273Z,1009.8
2023-06-03T07:03:25.303Z,1009.7
2023-06-03T07:04:26.290Z,1009.7
2023-06-03T07:05:27.292Z,1009.7
2023-06-03T07:06:28.279Z,1009.8
2023-06-03T07:07:29.275Z,1009.8
2023-06-03T07:08:30.284Z,1009.8
2023-06-03T07:09:31.295Z,1009.7
2023-06-03T07:10:32.283Z,1009.7
2023-06-03T07:11:33.263Z,1009.8
2023-06-03T07:12:34.269Z,1009.7
2023-06-03T07:13:35.277Z,1009.7
2023-06-03T07:14:36.279Z,1009.8
2023-06-03T07:15:37.282Z,1009.7
2023-06-03T07:16:38.347Z,1009.7
2023-06-03T07:17:40.150Z,1009.7
2023-06-03T07:18:41.275Z,1009.7
2023-06-03T07:19:42.278Z,1009.8
2023-06-03T07:20:43.261Z,1009.7
2023-06-03T07:21:44.289Z,1009.8
2023-06-03T07:22:45.266Z,1009.8
2023-06-03T07:23:46.312Z,1009.8
2023-06-03T07:24:47.289Z,1009.8
2023-06-03T07:25:48.268Z,1009.8
2023-06-03T07:26:49.309Z,1009.8
2023-06-03T07:27:50.311Z,1009.8
2023-06-03T07:28:51.309Z,1009.8
2023-06-03T07:29:52.283Z,1009.7
2023-06-03T07:30:53.417Z,1009.8
2023-06-03T07:31:54.360Z,1009.8
2023-06-03T07:32:55.295Z,1009.8
2023-06-03T07:33:56.303Z,1009.8
2023-06-03T07:34:57.278Z,1009.8
2023-06-03T07:35:58.282Z,1009.8
2023-06-03T07:36:59.284Z,1009.8
2023-06-03T07:38:00.280Z,1009.8
2023-06-03T07:39:01.306Z,1009.8
2023-06-03T07:40:02.338Z,1009.8
2023-06-03T07:41:03.422Z,1009.8
2023-06-03T07:42:04.296Z,1009.8
2023-06-03T07:43:05.286Z,1009.8
2023-06-03T07:44:06.322Z,1009.9
2023-06-03T07:45:07.332Z,1009.9
2023-06-03T07:46:08.349Z,1009.9
2023-06-03T07:47:09.287Z,1009.9
2023-06-03T07:48:10.308Z,1009.9
2023-06-03T07:49:11.308Z,1009.9
2023-06-03T07:50:12.277Z,1009.9
2023-06-03T07:51:13.279Z,1009.9
2023-06-03T07:52:14.347Z,1009.9
2023-06-03T07:53:15.281Z,1009.9
2023-06-03T07:54:16.277Z,1009.9
2023-06-03T07:55:17.284Z,1009.9
2023-06-03T07:56:18.310Z,1009.9
2023-06-03T07:57:19.300Z,1009.9
2023-06-03T07:58:20.289Z,1010
2023-06-03T07:59:21.284Z,1009.9
2023-06-03T08:00:22.346Z,1009.9
2023-06-03T08:01:23.295Z,1009.9
2023-06-03T08:02:24.417Z,1009.9
2023-06-03T08:03:25.301Z,1009.9
2023-06-03T08:04:26.296Z,1009.9
2023-06-03T08:05:27.317Z,1009.9
2023-06-03T08:06:30.464Z,1009.9
2023-06-03T08:07:29.288Z,1009.9
2023-06-03T08:08:30.296Z,1009.9
2023-06-03T08:09:31.301Z,1009.9
2023-06-03T08:10:32.297Z,1009.9
2023-06-03T08:11:33.310Z,1009.9
2023-06-03T08:12:34.291Z,1009.9
2023-06-03T08:13:35.297Z,1009.9
2023-06-03T08:14:36.320Z,1009.9
2023-06-03T08:15:37.306Z,1009.9
2023-06-03T08:16:38.364Z,1009.9
2023-06-03T08:17:39.941Z,1009.9
2023-06-03T08:18:41.299Z,1009.9
2023-06-03T08:19:42.308Z,1010
2023-06-03T08:20:43.337Z,1009.9
2023-06-03T08:21:44.301Z,1009.9
2023-06-03T08:22:45.387Z,1009.9
2023-06-03T08:23:46.345Z,1009.9
2023-06-03T08:24:47.301Z,1010
2023-06-03T08:25:48.310Z,1010
2023-06-03T08:26:49.348Z,1010
2023-06-03T08:27:50.301Z,1010
2023-06-03T08:28:51.298Z,1010
2023-06-03T08:29:52.324Z,1010
2023-06-03T08:30:53.308Z,1010
2023-06-03T08:31:54.368Z,1010
2023-06-03T08:32:55.364Z,1010
2023-06-03T08:33:56.367Z,1010
2023-06-03T08:34:57.302Z,1010
2023-06-03T08:35:58.298Z,1010
2023-06-03T08:36:59.353Z,1010
2023-06-03T08:38:00.320Z,1010
2023-06-03T08:39:01.329Z,1010
2023-06-03T08:40:02.397Z,1010
2023-06-03T08:41:03.429Z,1010
2023-06-03T08:42:04.337Z,1010
2023-06-03T08:43:05.374Z,1010
2023-06-03T08:44:06.327Z,1010
2023-06-03T08:45:07.354Z,1009.9
2023-06-03T08:46:08.418Z,1009.9
2023-06-03T08:47:09.307Z,1009.9
2023-06-03T08:48:10.394Z,1009.9
2023-06-03T08:49:11.316Z,1009.9
2023-06-03T08:50:12.335Z,1009.9
2023-06-03T08:51:13.325Z,1009.9
2023-06-03T08:52:14.319Z,1010
2023-06-03T08:53:15.360Z,1009.7
2023-06-03T08:54:16.315Z,1009.8
2023-06-03T08:55:17.626Z,1009.2
2023-06-03T08:56:18.319Z,1009.7
2023-06-03T08:57:19.338Z,1009.9
2023-06-03T08:58:20.458Z,1009.9
2023-06-03T08:59:21.353Z,1009.9
2023-06-03T09:00:22.332Z,1009.9
2023-06-03T09:01:23.372Z,1009.9
2023-06-03T09:02:24.379Z,1009.9
2023-06-03T09:03:25.370Z,1009.9
2023-06-03T09:04:26.362Z,1009.9
2023-06-03T09:05:27.385Z,1010
2023-06-03T09:06:28.331Z,1009.9
2023-06-03T09:07:29.335Z,1009.9
2023-06-03T09:08:30.328Z,1009.9
2023-06-03T09:09:31.346Z,1009.9
2023-06-03T09:10:32.335Z,1009.9
2023-06-03T09:11:33.357Z,1009.9
2023-06-03T09:12:34.329Z,1009.9
2023-06-03T09:13:35.335Z,1009.9
2023-06-03T09:14:36.424Z,1009.9
2023-06-03T09:15:37.385Z,1009.9
2023-06-03T09:16:38.423Z,1009.9
2023-06-03T09:17:40.322Z,1009.8
2023-06-03T09:18:41.401Z,1009.9
2023-06-03T09:19:42.376Z,1009.7
2023-06-03T09:20:43.351Z,1009.7
2023-06-03T09:21:44.501Z,1009.8
2023-06-03T09:22:45.335Z,1009.8
2023-06-03T09:23:46.354Z,1009.7
2023-06-03T09:24:47.388Z,1009.8
2023-06-03T09:25:48.564Z,1009.8
2023-06-03T09:26:49.342Z,1009.8
2023-06-03T09:27:50.344Z,1009.7
2023-06-03T09:28:51.356Z,1009.7
2023-06-03T09:29:52.400Z,1009.7
2023-06-03T09:30:53.346Z,1009.8
2023-06-03T09:31:54.393Z,1009.7
2023-06-03T09:32:55.376Z,1009.7
2023-06-03T09:33:56.350Z,1009.7
2023-06-03T09:34:57.346Z,1009.6
2023-06-03T09:35:58.365Z,1009.7
2023-06-03T09:36:59.357Z,1009.7
2023-06-03T09:38:00.345Z,1009.7
2023-06-03T09:39:01.389Z,1009.7
2023-06-03T09:40:02.421Z,1009.7
2023-06-03T09:41:03.593Z,1009.7
2023-06-03T09:42:04.346Z,1009.7
2023-06-03T09:43:05.361Z,1009.7
2023-06-03T09:44:06.388Z,1009.7
2023-06-03T09:45:07.360Z,1009.7
2023-06-03T09:46:08.352Z,1009.6
2023-06-03T09:47:09.450Z,1009.6
2023-06-03T09:48:10.485Z,1009.6
2023-06-03T09:49:11.348Z,1009.6
2023-06-03T09:50:12.349Z,1009.7
2023-06-03T09:51:13.345Z,1009.6
2023-06-03T09:52:14.407Z,1009.6
2023-06-03T09:53:15.407Z,1009.6
2023-06-03T09:54:16.349Z,1009.6
2023-06-03T09:55:17.352Z,1009.6
2023-06-03T09:56:18.368Z,1009.6
2023-06-03T09:57:19.427Z,1009.7
2023-06-03T09:58:20.381Z,1009.6
2023-06-03T09:59:21.345Z,1009.6
2023-06-03T10:00:22.363Z,1009.6
2023-06-03T10:01:23.383Z,1009.6
2023-06-03T10:02:24.394Z,1009.6
2023-06-03T10:03:25.443Z,1009.5
2023-06-03T10:04:26.348Z,1009.5
2023-06-03T10:05:27.424Z,1009.5
2023-06-03T10:06:28.358Z,1009.5
2023-06-03T10:07:29.349Z,1009.6
2023-06-03T10:08:30.374Z,1009.6
2023-06-03T10:09:31.381Z,1009.5
2023-06-03T10:10:32.424Z,1009.6
2023-06-03T10:11:33.348Z,1009.6
2023-06-03T10:12:34.386Z,1009.6
2023-06-03T10:13:35.357Z,1009.6
2023-06-03T10:14:36.368Z,1009.6
2023-06-03T10:15:37.384Z,1009.6
2023-06-03T10:16:38.442Z,1009.6
2023-06-03T10:17:39.408Z,1009.5
2023-06-03T10:18:40.350Z,1009.6
2023-06-03T10:19:41.399Z,1009.6
2023-06-03T10:20:42.377Z,1009.6
2023-06-03T10:21:43.388Z,1009.6
2023-06-03T10:22:45.347Z,1009.6
2023-06-03T10:23:46.521Z,1009.5
2023-06-03T10:24:47.419Z,1009.5
2023-06-03T10:25:48.399Z,1009.5
2023-06-03T10:26:49.385Z,1009.5
2023-06-03T10:27:50.398Z,1009.5
2023-06-03T10:28:51.428Z,1009.5
2023-06-03T10:29:52.450Z,1009.5
2023-06-03T10:30:53.369Z,1009.5
2023-06-03T10:31:54.383Z,1009.5
2023-06-03T10:32:55.445Z,1009.5
2023-06-03T10:33:56.386Z,1009.4
2023-06-03T10:34:57.361Z,1009.5
2023-06-03T10:35:58.396Z,1009.4
2023-06-03T10:36:59.391Z,1009.4
2023-06-03T10:38:00.416Z,1009.4
2023-06-03T10:39:01.373Z,1009.4
2023-06-03T10:40:02.415Z,1009.4
2023-06-03T10:41:03.630Z,1009.4
2023-06-03T10:42:05.347Z,1009.4
2023-06-03T10:43:05.527Z,1009.3
2023-06-03T10:44:06.406Z,1009.3
2023-06-03T10:45:07.418Z,1009.3
2023-06-03T10:46:08.496Z,1009.3
2023-06-03T10:47:09.403Z,1009.4
2023-06-03T10:48:10.428Z,1009.5
2023-06-03T10:49:11.389Z,1009.4
2023-06-03T10:50:12.389Z,1009.3
2023-06-03T10:51:13.384Z,1009.3
2023-06-03T10:52:14.448Z,1009.3
2023-06-03T10:53:17.268Z,1009.3
2023-06-03T10:54:16.397Z,1009.3
2023-06-03T10:55:17.504Z,1009.3
2023-06-03T10:56:18.385Z,1009.3
2023-06-03T10:57:19.403Z,1009.3
2023-06-03T10:58:20.395Z,1009.3
2023-06-03T10:59:21.400Z,1009.3
2023-06-03T11:00:22.436Z,1009.3
2023-06-03T11:01:23.454Z,1009.3
2023-06-03T11:02:24.454Z,1009.3
2023-06-03T11:03:25.496Z,1009.3
2023-06-03T11:04:26.479Z,1009.3
2023-06-03T11:05:27.383Z,1009.3
2023-06-03T11:06:28.398Z,1009.3
2023-06-03T11:07:29.396Z,1009.3
2023-06-03T11:08:30.407Z,1008.9
2023-06-03T11:09:31.438Z,1009.2
2023-06-03T11:10:32.419Z,1009.2
2023-06-03T11:11:33.408Z,1009.3
2023-06-03T11:12:34.441Z,1009.3
2023-06-03T11:13:35.397Z,1009.2
2023-06-03T11:14:36.426Z,1009.2
2023-06-03T11:15:37.410Z,1009.3
2023-06-03T11:16:38.437Z,1009.2
2023-06-03T11:17:39.425Z,1009.2
2023-06-03T11:18:40.406Z,1009.2
2023-06-03T11:19:41.409Z,1009.2
2023-06-03T11:20:42.418Z,1009.2
2023-06-03T11:21:43.423Z,1009.1
2023-06-03T11:22:44.473Z,1009.2
2023-06-03T11:23:45.533Z,1009.1
2023-06-03T11:24:46.415Z,1009.1
2023-06-03T11:25:47.417Z,1009.2
2023-06-03T11:26:48.423Z,1009.2
2023-06-03T11:27:49.402Z,1009.1
2023-06-03T11:28:50.416Z,1009.1
2023-06-03T11:29:51.439Z,1009.2
2023-06-03T11:30:52.425Z,1009.2
2023-06-03T11:31:53.486Z,1009.1
2023-06-03T11:32:54.460Z,1009.1
2023-06-03T11:33:55.408Z,1009.1
2023-06-03T11:34:56.419Z,1009.1
2023-06-03T11:35:57.461Z,1009.1
2023-06-03T11:36:58.460Z,1009.1
2023-06-03T11:37:59.424Z,1009.1
2023-06-03T11:39:00.420Z,1009.1
2023-06-03T11:40:01.429Z,1009
2023-06-03T11:41:02.449Z,1009.1
2023-06-03T11:42:03.417Z,1009.1
2023-06-03T11:43:04.464Z,1008.6
2023-06-03T11:44:05.733Z,1009
2023-06-03T11:45:06.464Z,1009
2023-06-03T11:46:07.529Z,1009
2023-06-03T11:47:08.436Z,1009
2023-06-03T11:48:09.477Z,1009
2023-06-03T11:49:10.440Z,1009
2023-06-03T11:50:11.447Z,1009
2023-06-03T11:51:12.436Z,1009
2023-06-03T11:52:13.425Z,1009
2023-06-03T11:53:14.437Z,1009.1
2023-06-03T11:54:15.417Z,1009.1
2023-06-03T11:55:16.466Z,1009
2023-06-03T11:56:17.434Z,1009
2023-06-03T11:57:18.424Z,1009.1
2023-06-03T11:58:20.065Z,1009.1
2023-06-03T11:59:21.430Z,1009
2023-06-03T12:00:22.416Z,1009
2023-06-03T12:01:23.421Z,1009.1
2023-06-03T12:02:24.502Z,1009
2023-06-03T12:03:25.646Z,1009
2023-06-03T12:04:26.422Z,1009
2023-06-03T12:05:27.512Z,1009
2023-06-03T12:06:28.439Z,1009
2023-06-03T12:07:29.432Z,1009
2023-06-03T12:08:30.433Z,1009
2023-06-03T12:09:31.431Z,1009
2023-06-03T12:10:32.458Z,1009
2023-06-03T12:11:33.476Z,1009
2023-06-03T12:12:34.427Z,1009
2023-06-03T12:13:35.448Z,1009
2023-06-03T12:14:36.434Z,1009
2023-06-03T12:15:37.457Z,1009
2023-06-03T12:16:38.441Z,1009
2023-06-03T12:17:39.467Z,1008.9
2023-06-03T12:18:40.430Z,1008.9
2023-06-03T12:19:41.489Z,1008.9
2023-06-03T12:20:43.638Z,1008.9
2023-06-03T12:21:43.434Z,1008.9
2023-06-03T12:22:44.433Z,1008.9
2023-06-03T12:23:45.457Z,1008.9
2023-06-03T12:24:46.534Z,1008.8
2023-06-03T12:25:47.433Z,1008.8
2023-06-03T12:26:48.484Z,1008.9
2023-06-03T12:27:49.455Z,1008.8
2023-06-03T12:28:50.437Z,1008.8
2023-06-03T12:29:51.489Z,1008.8
2023-06-03T12:30:52.431Z,1008.8
2023-06-03T12:31:53.497Z,1008.8
2023-06-03T12:32:54.530Z,1008.8
2023-06-03T12:33:55.485Z,1008.8
2023-06-03T12:34:56.481Z,1008.8
2023-06-03T12:35:57.509Z,1008.8
2023-06-03T12:36:58.473Z,1008.8
2023-06-03T12:37:59.449Z,1008.8
2023-06-03T12:39:00.464Z,1008.8
2023-06-03T12:40:01.480Z,1008.7
2023-06-03T12:41:02.491Z,1008.2
2023-06-03T12:42:03.522Z,1008.5
2023-06-03T12:43:04.547Z,1008.6
2023-06-03T12:44:05.461Z,1008.6
2023-06-03T12:45:06.516Z,1008.7
2023-06-03T12:46:07.458Z,1008.6
2023-06-03T12:47:08.504Z,1008.6